sensor_id;sensor_type;location;lat;lon;timestamp;P1;durP1;ratioP1;P2;durP2;ratioP2
41480;SDS011;27217;51.220;5.308;2023-07-13T00:00:33;3.40;;;1.30;;
41480;SDS011;27217;51.220;5.308;2023-07-13T00:02:59;4.97;;;1.40;;
41480;SDS011;27217;51.220;5.308;2023-07-13T00:05:25;7.22;;;1.42;;
41480;SDS011;27217;51.220;5.308;2023-07-13T00:07:52;7.85;;;1.70;;
41480;SDS011;27217;51.220;5.308;2023-07-13T00:10:19;5.22;;;1.30;;
41480;SDS011;27217;51.220;5.308;2023-07-13T00:12:45;6.78;;;1.52;;
41480;SDS011;27217;51.220;5.308;2023-07-13T00:15:12;12.60;;;2.00;;
41480;SDS011;27217;51.220;5.308;2023-07-13T00:17:47;7.65;;;1.60;;
41480;SDS011;27217;51.220;5.308;2023-07-13T00:20:18;7.82;;;1.50;;
41480;SDS011;27217;51.220;5.308;2023-07-13T00:22:47;12.95;;;1.80;;
41480;SDS011;27217;51.220;5.308;2023-07-13T00:25:14;14.93;;;1.98;;
41480;SDS011;27217;51.220;5.308;2023-07-13T00:27:41;6.30;;;1.50;;
41480;SDS011;27217;51.220;5.308;2023-07-13T00:30:07;9.65;;;1.95;;
41480;SDS011;27217;51.220;5.308;2023-07-13T00:32:34;5.00;;;1.40;;
41480;SDS011;27217;51.220;5.308;2023-07-13T00:35:01;2.08;;;1.10;;
41480;SDS011;27217;51.220;5.308;2023-07-13T00:37:31;7.43;;;1.98;;
41480;SDS011;27217;51.220;5.308;2023-07-13T00:39:57;7.38;;;1.73;;
41480;SDS011;27217;51.220;5.308;2023-07-13T00:42:22;6.57;;;1.60;;
41480;SDS011;27217;51.220;5.308;2023-07-13T00:45:02;7.32;;;1.55;;
41480;SDS011;27217;51.220;5.308;2023-07-13T00:47:51;9.05;;;1.55;;
41480;SDS011;27217;51.220;5.308;2023-07-13T00:50:18;5.00;;;1.60;;
41480;SDS011;27217;51.220;5.308;2023-07-13T00:52:49;10.40;;;1.55;;
41480;SDS011;27217;51.220;5.308;2023-07-13T00:55:18;9.02;;;1.63;;
41480;SDS011;27217;51.220;5.308;2023-07-13T00:57:46;9.68;;;2.17;;
41480;SDS011;27217;51.220;5.308;2023-07-13T01:00:12;7.53;;;1.67;;
41480;SDS011;27217;51.220;5.308;2023-07-13T01:02:40;12.25;;;1.80;;
41480;SDS011;27217;51.220;5.308;2023-07-13T01:05:11;11.65;;;1.70;;
41480;SDS011;27217;51.220;5.308;2023-07-13T01:07:41;2.78;;;1.65;;
41480;SDS011;27217;51.220;5.308;2023-07-13T01:10:08;7.28;;;1.75;;
41480;SDS011;27217;51.220;5.308;2023-07-13T01:12:35;4.45;;;1.73;;
41480;SDS011;27217;51.220;5.308;2023-07-13T01:15:02;13.75;;;1.85;;
41480;SDS011;27217;51.220;5.308;2023-07-13T01:17:29;7.78;;;2.10;;
41480;SDS011;27217;51.220;5.308;2023-07-13T01:19:56;9.73;;;1.85;;
41480;SDS011;27217;51.220;5.308;2023-07-13T01:22:22;5.47;;;1.70;;
41480;SDS011;27217;51.220;5.308;2023-07-13T01:24:51;4.90;;;1.60;;
41480;SDS011;27217;51.220;5.308;2023-07-13T01:27:20;8.07;;;1.88;;
41480;SDS011;27217;51.220;5.308;2023-07-13T01:29:51;5.68;;;1.73;;
41480;SDS011;27217;51.220;5.308;2023-07-13T01:32:19;6.43;;;1.88;;
41480;SDS011;27217;51.220;5.308;2023-07-13T01:34:52;7.50;;;1.85;;
41480;SDS011;27217;51.220;5.308;2023-07-13T01:37:38;6.45;;;1.50;;
41480;SDS011;27217;51.220;5.308;2023-07-13T01:40:04;8.90;;;1.55;;
41480;SDS011;27217;51.220;5.308;2023-07-13T01:42:31;10.98;;;1.60;;
41480;SDS011;27217;51.220;5.308;2023-07-13T01:44:57;4.78;;;1.75;;
41480;SDS011;27217;51.220;5.308;2023-07-13T01:47:23;12.88;;;2.45;;
41480;SDS011;27217;51.220;5.308;2023-07-13T01:49:51;5.57;;;1.70;;
41480;SDS011;27217;51.220;5.308;2023-07-13T01:52:17;11.77;;;2.90;;
41480;SDS011;27217;51.220;5.308;2023-07-13T01:54:43;5.90;;;1.52;;
41480;SDS011;27217;51.220;5.308;2023-07-13T01:57:09;7.70;;;1.92;;
41480;SDS011;27217;51.220;5.308;2023-07-13T01:59:35;7.35;;;1.60;;
41480;SDS011;27217;51.220;5.308;2023-07-13T02:02:01;5.88;;;2.10;;
41480;SDS011;27217;51.220;5.308;2023-07-13T02:04:26;6.45;;;2.35;;
41480;SDS011;27217;51.220;5.308;2023-07-13T02:06:52;7.47;;;1.67;;
41480;SDS011;27217;51.220;5.308;2023-07-13T02:09:20;8.80;;;1.85;;
41480;SDS011;27217;51.220;5.308;2023-07-13T02:11:46;6.38;;;1.90;;
41480;SDS011;27217;51.220;5.308;2023-07-13T02:14:13;11.52;;;2.42;;
41480;SDS011;27217;51.220;5.308;2023-07-13T02:16:40;4.03;;;1.63;;
41480;SDS011;27217;51.220;5.308;2023-07-13T02:19:06;8.90;;;2.17;;
41480;SDS011;27217;51.220;5.308;2023-07-13T02:21:32;8.50;;;2.13;;
41480;SDS011;27217;51.220;5.308;2023-07-13T02:23:58;6.88;;;1.80;;
41480;SDS011;27217;51.220;5.308;2023-07-13T02:26:25;17.42;;;2.60;;
41480;SDS011;27217;51.220;5.308;2023-07-13T02:28:51;9.88;;;2.50;;
41480;SDS011;27217;51.220;5.308;2023-07-13T02:31:17;11.82;;;2.15;;
41480;SDS011;27217;51.220;5.308;2023-07-13T02:33:43;9.40;;;2.03;;
41480;SDS011;27217;51.220;5.308;2023-07-13T02:36:09;17.25;;;3.15;;
41480;SDS011;27217;51.220;5.308;2023-07-13T02:38:35;11.13;;;2.50;;
41480;SDS011;27217;51.220;5.308;2023-07-13T02:41:02;24.15;;;3.50;;
41480;SDS011;27217;51.220;5.308;2023-07-13T02:43:28;9.88;;;2.72;;
41480;SDS011;27217;51.220;5.308;2023-07-13T02:45:54;10.52;;;2.28;;
41480;SDS011;27217;51.220;5.308;2023-07-13T02:48:21;8.73;;;2.60;;
41480;SDS011;27217;51.220;5.308;2023-07-13T02:50:47;7.05;;;2.50;;
41480;SDS011;27217;51.220;5.308;2023-07-13T02:53:13;6.68;;;1.70;;
41480;SDS011;27217;51.220;5.308;2023-07-13T02:55:40;7.60;;;2.28;;
41480;SDS011;27217;51.220;5.308;2023-07-13T02:58:06;14.23;;;2.42;;
41480;SDS011;27217;51.220;5.308;2023-07-13T03:00:32;14.32;;;3.75;;
41480;SDS011;27217;51.220;5.308;2023-07-13T03:02:58;13.88;;;2.67;;
41480;SDS011;27217;51.220;5.308;2023-07-13T03:05:25;5.85;;;1.92;;
41480;SDS011;27217;51.220;5.308;2023-07-13T03:07:50;9.32;;;2.42;;
41480;SDS011;27217;51.220;5.308;2023-07-13T03:10:16;8.18;;;1.95;;
41480;SDS011;27217;51.220;5.308;2023-07-13T03:12:42;8.82;;;2.95;;
41480;SDS011;27217;51.220;5.308;2023-07-13T03:15:08;20.92;;;2.83;;
41480;SDS011;27217;51.220;5.308;2023-07-13T03:17:35;15.68;;;2.90;;
41480;SDS011;27217;51.220;5.308;2023-07-13T03:20:01;9.60;;;2.70;;
41480;SDS011;27217;51.220;5.308;2023-07-13T03:22:27;12.95;;;2.67;;
41480;SDS011;27217;51.220;5.308;2023-07-13T03:24:54;11.15;;;2.45;;
41480;SDS011;27217;51.220;5.308;2023-07-13T03:27:20;16.95;;;2.67;;
41480;SDS011;27217;51.220;5.308;2023-07-13T03:29:50;11.38;;;2.15;;
41480;SDS011;27217;51.220;5.308;2023-07-13T03:32:16;12.55;;;2.50;;
41480;SDS011;27217;51.220;5.308;2023-07-13T03:34:42;13.23;;;3.38;;
41480;SDS011;27217;51.220;5.308;2023-07-13T03:37:08;12.65;;;2.42;;
41480;SDS011;27217;51.220;5.308;2023-07-13T03:39:34;16.23;;;2.63;;
41480;SDS011;27217;51.220;5.308;2023-07-13T03:42:00;13.20;;;2.80;;
41480;SDS011;27217;51.220;5.308;2023-07-13T03:44:29;20.10;;;3.00;;
41480;SDS011;27217;51.220;5.308;2023-07-13T03:46:55;10.90;;;2.90;;
41480;SDS011;27217;51.220;5.308;2023-07-13T03:49:20;11.10;;;2.78;;
41480;SDS011;27217;51.220;5.308;2023-07-13T03:51:46;10.13;;;2.28;;
41480;SDS011;27217;51.220;5.308;2023-07-13T03:54:13;14.07;;;3.60;;
41480;SDS011;27217;51.220;5.308;2023-07-13T03:56:39;10.68;;;2.28;;
41480;SDS011;27217;51.220;5.308;2023-07-13T03:59:05;14.48;;;3.17;;
41480;SDS011;27217;51.220;5.308;2023-07-13T04:01:31;9.10;;;2.47;;
41480;SDS011;27217;51.220;5.308;2023-07-13T04:03:59;10.20;;;2.72;;
41480;SDS011;27217;51.220;5.308;2023-07-13T04:06:27;10.35;;;2.55;;
41480;SDS011;27217;51.220;5.308;2023-07-13T04:08:56;20.13;;;3.35;;
41480;SDS011;27217;51.220;5.308;2023-07-13T04:11:25;9.88;;;2.72;;
41480;SDS011;27217;51.220;5.308;2023-07-13T04:13:53;8.95;;;2.25;;
41480;SDS011;27217;51.220;5.308;2023-07-13T04:16:19;10.30;;;2.90;;
41480;SDS011;27217;51.220;5.308;2023-07-13T04:18:45;17.85;;;3.47;;
41480;SDS011;27217;51.220;5.308;2023-07-13T04:21:13;19.10;;;3.33;;
41480;SDS011;27217;51.220;5.308;2023-07-13T04:23:40;14.30;;;2.72;;
41480;SDS011;27217;51.220;5.308;2023-07-13T04:26:06;20.10;;;3.53;;
41480;SDS011;27217;51.220;5.308;2023-07-13T04:28:32;7.40;;;3.85;;
41480;SDS011;27217;51.220;5.308;2023-07-13T04:30:58;10.73;;;3.05;;
41480;SDS011;27217;51.220;5.308;2023-07-13T04:33:24;9.65;;;2.58;;
41480;SDS011;27217;51.220;5.308;2023-07-13T04:35:51;12.00;;;3.00;;
41480;SDS011;27217;51.220;5.308;2023-07-13T04:38:19;15.75;;;3.38;;
41480;SDS011;27217;51.220;5.308;2023-07-13T04:40:46;9.45;;;3.05;;
41480;SDS011;27217;51.220;5.308;2023-07-13T04:43:12;14.68;;;2.85;;
41480;SDS011;27217;51.220;5.308;2023-07-13T04:45:38;14.35;;;3.58;;
41480;SDS011;27217;51.220;5.308;2023-07-13T04:48:05;17.23;;;3.00;;
41480;SDS011;27217;51.220;5.308;2023-07-13T04:50:30;10.45;;;2.90;;
41480;SDS011;27217;51.220;5.308;2023-07-13T04:52:57;12.18;;;3.15;;
41480;SDS011;27217;51.220;5.308;2023-07-13T04:55:24;12.50;;;3.05;;
41480;SDS011;27217;51.220;5.308;2023-07-13T04:57:50;15.90;;;3.17;;
41480;SDS011;27217;51.220;5.308;2023-07-13T05:00:16;10.00;;;2.58;;
41480;SDS011;27217;51.220;5.308;2023-07-13T05:02:45;14.98;;;2.92;;
41480;SDS011;27217;51.220;5.308;2023-07-13T05:05:11;9.57;;;2.65;;
41480;SDS011;27217;51.220;5.308;2023-07-13T05:07:37;6.50;;;2.33;;
41480;SDS011;27217;51.220;5.308;2023-07-13T05:10:03;18.88;;;3.72;;
41480;SDS011;27217;51.220;5.308;2023-07-13T05:12:29;11.65;;;3.08;;
41480;SDS011;27217;51.220;5.308;2023-07-13T05:14:55;15.13;;;3.45;;
41480;SDS011;27217;51.220;5.308;2023-07-13T05:17:21;17.45;;;2.90;;
41480;SDS011;27217;51.220;5.308;2023-07-13T05:19:47;21.45;;;3.70;;
41480;SDS011;27217;51.220;5.308;2023-07-13T05:22:12;13.38;;;3.55;;
41480;SDS011;27217;51.220;5.308;2023-07-13T05:24:39;16.70;;;3.30;;
41480;SDS011;27217;51.220;5.308;2023-07-13T05:27:05;13.18;;;3.35;;
41480;SDS011;27217;51.220;5.308;2023-07-13T05:29:33;21.35;;;4.03;;
41480;SDS011;27217;51.220;5.308;2023-07-13T05:32:00;13.30;;;3.08;;
41480;SDS011;27217;51.220;5.308;2023-07-13T05:34:25;16.65;;;3.63;;
41480;SDS011;27217;51.220;5.308;2023-07-13T05:36:51;19.40;;;3.53;;
41480;SDS011;27217;51.220;5.308;2023-07-13T05:39:18;12.55;;;3.38;;
41480;SDS011;27217;51.220;5.308;2023-07-13T05:41:44;18.13;;;3.17;;
41480;SDS011;27217;51.220;5.308;2023-07-13T05:44:09;16.58;;;3.50;;
41480;SDS011;27217;51.220;5.308;2023-07-13T05:46:36;19.60;;;3.30;;
41480;SDS011;27217;51.220;5.308;2023-07-13T05:49:01;17.23;;;3.30;;
41480;SDS011;27217;51.220;5.308;2023-07-13T05:51:28;19.92;;;3.88;;
41480;SDS011;27217;51.220;5.308;2023-07-13T05:53:54;18.13;;;3.83;;
41480;SDS011;27217;51.220;5.308;2023-07-13T05:56:20;12.43;;;3.38;;
41480;SDS011;27217;51.220;5.308;2023-07-13T05:58:45;13.23;;;3.30;;
41480;SDS011;27217;51.220;5.308;2023-07-13T06:01:13;21.27;;;3.15;;
41480;SDS011;27217;51.220;5.308;2023-07-13T06:03:41;16.65;;;3.88;;
41480;SDS011;27217;51.220;5.308;2023-07-13T06:06:07;23.35;;;4.10;;
41480;SDS011;27217;51.220;5.308;2023-07-13T06:08:35;15.60;;;3.45;;
41480;SDS011;27217;51.220;5.308;2023-07-13T06:11:23;15.10;;;3.33;;
41480;SDS011;27217;51.220;5.308;2023-07-13T06:13:48;21.92;;;3.92;;
41480;SDS011;27217;51.220;5.308;2023-07-13T06:16:15;17.48;;;3.55;;
41480;SDS011;27217;51.220;5.308;2023-07-13T06:18:42;15.95;;;3.50;;
41480;SDS011;27217;51.220;5.308;2023-07-13T06:21:13;20.88;;;3.78;;
41480;SDS011;27217;51.220;5.308;2023-07-13T06:23:44;10.27;;;2.67;;
41480;SDS011;27217;51.220;5.308;2023-07-13T06:26:12;18.98;;;4.00;;
41480;SDS011;27217;51.220;5.308;2023-07-13T06:28:39;12.07;;;3.65;;
41480;SDS011;27217;51.220;5.308;2023-07-13T06:31:08;19.08;;;3.80;;
41480;SDS011;27217;51.220;5.308;2023-07-13T06:33:35;10.52;;;2.75;;
41480;SDS011;27217;51.220;5.308;2023-07-13T06:36:02;23.50;;;4.30;;
41480;SDS011;27217;51.220;5.308;2023-07-13T06:38:28;21.00;;;3.67;;
41480;SDS011;27217;51.220;5.308;2023-07-13T06:40:54;13.43;;;3.13;;
41480;SDS011;27217;51.220;5.308;2023-07-13T06:43:20;9.95;;;3.03;;
41480;SDS011;27217;51.220;5.308;2023-07-13T06:45:46;21.48;;;4.07;;
41480;SDS011;27217;51.220;5.308;2023-07-13T06:48:14;15.13;;;3.42;;
41480;SDS011;27217;51.220;5.308;2023-07-13T06:50:42;13.40;;;3.95;;
41480;SDS011;27217;51.220;5.308;2023-07-13T06:53:09;16.20;;;3.45;;
41480;SDS011;27217;51.220;5.308;2023-07-13T06:55:36;14.27;;;3.90;;
41480;SDS011;27217;51.220;5.308;2023-07-13T06:58:02;21.13;;;4.20;;
41480;SDS011;27217;51.220;5.308;2023-07-13T07:00:28;19.85;;;4.13;;
41480;SDS011;27217;51.220;5.308;2023-07-13T07:02:54;12.52;;;3.38;;
41480;SDS011;27217;51.220;5.308;2023-07-13T07:05:20;20.17;;;3.47;;
41480;SDS011;27217;51.220;5.308;2023-07-13T07:07:50;12.70;;;3.53;;
41480;SDS011;27217;51.220;5.308;2023-07-13T07:10:17;18.42;;;4.80;;
41480;SDS011;27217;51.220;5.308;2023-07-13T07:12:44;25.55;;;4.72;;
41480;SDS011;27217;51.220;5.308;2023-07-13T07:15:09;17.73;;;4.78;;
41480;SDS011;27217;51.220;5.308;2023-07-13T07:17:36;18.65;;;3.78;;
41480;SDS011;27217;51.220;5.308;2023-07-13T07:20:02;18.15;;;4.32;;
41480;SDS011;27217;51.220;5.308;2023-07-13T07:22:29;12.52;;;3.13;;
41480;SDS011;27217;51.220;5.308;2023-07-13T07:24:56;13.10;;;3.13;;
41480;SDS011;27217;51.220;5.308;2023-07-13T07:27:23;24.10;;;4.50;;
41480;SDS011;27217;51.220;5.308;2023-07-13T07:29:49;16.90;;;4.05;;
41480;SDS011;27217;51.220;5.308;2023-07-13T07:32:14;18.65;;;4.30;;
41480;SDS011;27217;51.220;5.308;2023-07-13T07:34:40;10.05;;;3.28;;
41480;SDS011;27217;51.220;5.308;2023-07-13T07:37:06;21.27;;;4.05;;
41480;SDS011;27217;51.220;5.308;2023-07-13T07:39:35;9.15;;;3.13;;
41480;SDS011;27217;51.220;5.308;2023-07-13T07:42:02;16.15;;;3.67;;
41480;SDS011;27217;51.220;5.308;2023-07-13T07:44:27;15.20;;;3.28;;
41480;SDS011;27217;51.220;5.308;2023-07-13T07:46:53;20.80;;;3.78;;
41480;SDS011;27217;51.220;5.308;2023-07-13T07:49:20;19.08;;;3.55;;
41480;SDS011;27217;51.220;5.308;2023-07-13T07:51:45;16.50;;;3.75;;
41480;SDS011;27217;51.220;5.308;2023-07-13T07:54:11;13.40;;;3.35;;
41480;SDS011;27217;51.220;5.308;2023-07-13T07:56:37;21.05;;;4.38;;
41480;SDS011;27217;51.220;5.308;2023-07-13T07:59:03;13.75;;;3.10;;
41480;SDS011;27217;51.220;5.308;2023-07-13T08:01:28;13.40;;;3.60;;
41480;SDS011;27217;51.220;5.308;2023-07-13T08:03:54;13.90;;;3.30;;
41480;SDS011;27217;51.220;5.308;2023-07-13T08:06:20;11.65;;;3.38;;
41480;SDS011;27217;51.220;5.308;2023-07-13T08:08:47;17.88;;;3.75;;
41480;SDS011;27217;51.220;5.308;2023-07-13T08:11:12;11.50;;;3.25;;
41480;SDS011;27217;51.220;5.308;2023-07-13T08:13:38;15.65;;;4.47;;
41480;SDS011;27217;51.220;5.308;2023-07-13T08:16:05;13.82;;;3.03;;
41480;SDS011;27217;51.220;5.308;2023-07-13T08:18:31;19.42;;;4.13;;
41480;SDS011;27217;51.220;5.308;2023-07-13T08:20:57;15.10;;;3.05;;
41480;SDS011;27217;51.220;5.308;2023-07-13T08:23:23;13.80;;;3.53;;
41480;SDS011;27217;51.220;5.308;2023-07-13T08:25:53;18.85;;;4.25;;
41480;SDS011;27217;51.220;5.308;2023-07-13T08:28:20;17.45;;;3.22;;
41480;SDS011;27217;51.220;5.308;2023-07-13T08:30:47;15.65;;;3.30;;
41480;SDS011;27217;51.220;5.308;2023-07-13T08:33:16;19.83;;;4.03;;
41480;SDS011;27217;51.220;5.308;2023-07-13T08:35:49;16.73;;;3.03;;
41480;SDS011;27217;51.220;5.308;2023-07-13T08:38:16;12.77;;;3.00;;
41480;SDS011;27217;51.220;5.308;2023-07-13T08:40:43;14.65;;;3.63;;
41480;SDS011;27217;51.220;5.308;2023-07-13T08:43:20;14.40;;;3.22;;
41480;SDS011;27217;51.220;5.308;2023-07-13T08:46:55;11.75;;;2.85;;
41480;SDS011;27217;51.220;5.308;2023-07-13T08:49:22;13.88;;;2.88;;
41480;SDS011;27217;51.220;5.308;2023-07-13T08:51:49;15.63;;;3.08;;
41480;SDS011;27217;51.220;5.308;2023-07-13T08:54:28;12.55;;;3.42;;
41480;SDS011;27217;51.220;5.308;2023-07-13T08:56:55;15.35;;;3.88;;
41480;SDS011;27217;51.220;5.308;2023-07-13T08:59:27;12.20;;;3.72;;
41480;SDS011;27217;51.220;5.308;2023-07-13T09:15:24;12.43;;;3.78;;
41480;SDS011;27217;51.220;5.308;2023-07-13T09:17:52;8.35;;;2.13;;
41480;SDS011;27217;51.220;5.308;2023-07-13T09:20:34;17.30;;;4.07;;
41480;SDS011;27217;51.220;5.308;2023-07-13T09:23:07;16.40;;;3.33;;
41480;SDS011;27217;51.220;5.308;2023-07-13T09:25:39;11.52;;;3.22;;
41480;SDS011;27217;51.220;5.308;2023-07-13T09:28:33;11.98;;;3.03;;
41480;SDS011;27217;51.220;5.308;2023-07-13T09:31:01;9.05;;;2.25;;
41480;SDS011;27217;51.220;5.308;2023-07-13T09:33:31;12.80;;;2.70;;
41480;SDS011;27217;51.220;5.308;2023-07-13T09:35:57;16.42;;;2.55;;
41480;SDS011;27217;51.220;5.308;2023-07-13T09:38:24;9.63;;;2.42;;
41480;SDS011;27217;51.220;5.308;2023-07-13T09:44:00;5.90;;;1.95;;
41480;SDS011;27217;51.220;5.308;2023-07-13T09:46:36;9.38;;;1.98;;
41480;SDS011;27217;51.220;5.308;2023-07-13T09:49:03;7.03;;;2.05;;
41480;SDS011;27217;51.220;5.308;2023-07-13T09:51:29;8.20;;;1.83;;
41480;SDS011;27217;51.220;5.308;2023-07-13T09:53:55;7.97;;;2.00;;
41480;SDS011;27217;51.220;5.308;2023-07-13T09:56:26;18.33;;;2.65;;
41480;SDS011;27217;51.220;5.308;2023-07-13T09:58:54;12.73;;;2.55;;
41480;SDS011;27217;51.220;5.308;2023-07-13T10:01:32;8.95;;;2.25;;
41480;SDS011;27217;51.220;5.308;2023-07-13T10:04:00;7.72;;;1.73;;
41480;SDS011;27217;51.220;5.308;2023-07-13T10:06:26;9.65;;;2.03;;
41480;SDS011;27217;51.220;5.308;2023-07-13T10:08:53;10.98;;;2.08;;
41480;SDS011;27217;51.220;5.308;2023-07-13T10:11:22;11.50;;;2.25;;
41480;SDS011;27217;51.220;5.308;2023-07-13T10:14:01;7.80;;;2.08;;
41480;SDS011;27217;51.220;5.308;2023-07-13T10:16:46;8.25;;;1.90;;
41480;SDS011;27217;51.220;5.308;2023-07-13T10:24:22;10.40;;;2.10;;
41480;SDS011;27217;51.220;5.308;2023-07-13T10:26:57;8.15;;;2.45;;
41480;SDS011;27217;51.220;5.308;2023-07-13T10:29:45;13.35;;;3.15;;
41480;SDS011;27217;51.220;5.308;2023-07-13T10:32:15;14.45;;;3.28;;
41480;SDS011;27217;51.220;5.308;2023-07-13T10:34:43;9.48;;;2.70;;
41480;SDS011;27217;51.220;5.308;2023-07-13T10:40:05;14.25;;;3.88;;
41480;SDS011;27217;51.220;5.308;2023-07-13T10:42:39;15.75;;;4.25;;
41480;SDS011;27217;51.220;5.308;2023-07-13T10:45:12;14.00;;;3.90;;
41480;SDS011;27217;51.220;5.308;2023-07-13T10:47:40;7.82;;;3.05;;
41480;SDS011;27217;51.220;5.308;2023-07-13T10:50:11;8.40;;;3.40;;
41480;SDS011;27217;51.220;5.308;2023-07-13T10:52:49;10.20;;;3.65;;
41480;SDS011;27217;51.220;5.308;2023-07-13T10:58:25;9.70;;;3.63;;
41480;SDS011;27217;51.220;5.308;2023-07-13T11:03:36;7.10;;;2.40;;
41480;SDS011;27217;51.220;5.308;2023-07-13T11:06:12;13.23;;;2.70;;
41480;SDS011;27217;51.220;5.308;2023-07-13T11:18:53;8.68;;;2.40;;
41480;SDS011;27217;51.220;5.308;2023-07-13T11:24:47;11.77;;;2.00;;
41480;SDS011;27217;51.220;5.308;2023-07-13T11:27:36;9.65;;;2.50;;
41480;SDS011;27217;51.220;5.308;2023-07-13T11:33:09;5.03;;;2.20;;
41480;SDS011;27217;51.220;5.308;2023-07-13T11:40:58;9.82;;;2.67;;
41480;SDS011;27217;51.220;5.308;2023-07-13T11:43:28;14.93;;;2.97;;
41480;SDS011;27217;51.220;5.308;2023-07-13T11:45:54;7.28;;;2.25;;
41480;SDS011;27217;51.220;5.308;2023-07-13T11:48:25;6.82;;;2.10;;
41480;SDS011;27217;51.220;5.308;2023-07-13T11:50:55;10.40;;;2.50;;
41480;SDS011;27217;51.220;5.308;2023-07-13T11:53:25;6.82;;;2.42;;
41480;SDS011;27217;51.220;5.308;2023-07-13T11:55:53;8.05;;;2.00;;
41480;SDS011;27217;51.220;5.308;2023-07-13T11:58:21;9.63;;;2.40;;
41480;SDS011;27217;51.220;5.308;2023-07-13T12:00:50;6.00;;;2.20;;
41480;SDS011;27217;51.220;5.308;2023-07-13T12:03:19;6.38;;;2.13;;
41480;SDS011;27217;51.220;5.308;2023-07-13T12:06:05;3.63;;;1.88;;
41480;SDS011;27217;51.220;5.308;2023-07-13T12:08:44;6.25;;;2.13;;
41480;SDS011;27217;51.220;5.308;2023-07-13T12:11:15;9.18;;;2.25;;
41480;SDS011;27217;51.220;5.308;2023-07-13T12:13:43;7.28;;;1.90;;
41480;SDS011;27217;51.220;5.308;2023-07-13T12:16:12;4.72;;;1.70;;
41480;SDS011;27217;51.220;5.308;2023-07-13T12:18:45;3.90;;;1.77;;
41480;SDS011;27217;51.220;5.308;2023-07-13T12:21:12;6.63;;;1.58;;
41480;SDS011;27217;51.220;5.308;2023-07-13T12:23:39;5.10;;;1.65;;
41480;SDS011;27217;51.220;5.308;2023-07-13T12:26:09;5.60;;;2.00;;
41480;SDS011;27217;51.220;5.308;2023-07-13T12:28:37;7.45;;;1.88;;
41480;SDS011;27217;51.220;5.308;2023-07-13T12:34:12;7.82;;;1.83;;
41480;SDS011;27217;51.220;5.308;2023-07-13T12:36:41;3.72;;;1.70;;
41480;SDS011;27217;51.220;5.308;2023-07-13T12:39:17;5.05;;;2.15;;
41480;SDS011;27217;51.220;5.308;2023-07-13T12:41:47;6.47;;;1.80;;
41480;SDS011;27217;51.220;5.308;2023-07-13T12:44:15;6.80;;;1.88;;
41480;SDS011;27217;51.220;5.308;2023-07-13T12:46:52;5.13;;;2.30;;
41480;SDS011;27217;51.220;5.308;2023-07-13T12:49:24;7.20;;;2.42;;
41480;SDS011;27217;51.220;5.308;2023-07-13T12:51:57;8.02;;;2.78;;
41480;SDS011;27217;51.220;5.308;2023-07-13T12:54:25;9.30;;;3.15;;
41480;SDS011;27217;51.220;5.308;2023-07-13T12:56:52;15.00;;;2.78;;
41480;SDS011;27217;51.220;5.308;2023-07-13T12:59:22;7.80;;;2.50;;
41480;SDS011;27217;51.220;5.308;2023-07-13T13:01:50;7.53;;;2.78;;
41480;SDS011;27217;51.220;5.308;2023-07-13T13:04:18;8.73;;;2.75;;
41480;SDS011;27217;51.220;5.308;2023-07-13T13:06:48;12.98;;;3.17;;
41480;SDS011;27217;51.220;5.308;2023-07-13T13:09:14;8.02;;;2.85;;
41480;SDS011;27217;51.220;5.308;2023-07-13T13:11:43;8.13;;;2.88;;
41480;SDS011;27217;51.220;5.308;2023-07-13T13:14:09;4.43;;;2.25;;
41480;SDS011;27217;51.220;5.308;2023-07-13T13:16:46;7.40;;;2.72;;
41480;SDS011;27217;51.220;5.308;2023-07-13T13:21:56;5.63;;;2.05;;
41480;SDS011;27217;51.220;5.308;2023-07-13T13:24:23;6.40;;;2.60;;
41480;SDS011;27217;51.220;5.308;2023-07-13T13:26:51;6.28;;;1.92;;
41480;SDS011;27217;51.220;5.308;2023-07-13T13:29:19;4.50;;;2.10;;
41480;SDS011;27217;51.220;5.308;2023-07-13T13:31:49;5.82;;;2.30;;
41480;SDS011;27217;51.220;5.308;2023-07-13T13:34:16;7.93;;;2.58;;
41480;SDS011;27217;51.220;5.308;2023-07-13T13:36:44;5.68;;;2.67;;
41480;SDS011;27217;51.220;5.308;2023-07-13T13:41:53;5.70;;;2.50;;
41480;SDS011;27217;51.220;5.308;2023-07-13T13:44:19;8.15;;;2.53;;
41480;SDS011;27217;51.220;5.308;2023-07-13T13:46:47;3.83;;;2.20;;
41480;SDS011;27217;51.220;5.308;2023-07-13T13:49:16;6.13;;;2.90;;
41480;SDS011;27217;51.220;5.308;2023-07-13T13:51:46;8.38;;;3.08;;
41480;SDS011;27217;51.220;5.308;2023-07-13T13:54:12;3.70;;;1.98;;
41480;SDS011;27217;51.220;5.308;2023-07-13T13:56:41;7.82;;;2.35;;
41480;SDS011;27217;51.220;5.308;2023-07-13T13:59:09;5.75;;;1.90;;
41480;SDS011;27217;51.220;5.308;2023-07-13T14:01:35;3.83;;;1.92;;
41480;SDS011;27217;51.220;5.308;2023-07-13T14:04:02;6.10;;;2.20;;
41480;SDS011;27217;51.220;5.308;2023-07-13T14:06:28;3.67;;;1.80;;
41480;SDS011;27217;51.220;5.308;2023-07-13T14:08:54;5.15;;;1.70;;
41480;SDS011;27217;51.220;5.308;2023-07-13T14:11:24;3.97;;;2.00;;
41480;SDS011;27217;51.220;5.308;2023-07-13T14:13:54;6.82;;;2.00;;
41480;SDS011;27217;51.220;5.308;2023-07-13T14:16:24;5.55;;;2.50;;
41480;SDS011;27217;51.220;5.308;2023-07-13T14:18:55;7.78;;;2.20;;
41480;SDS011;27217;51.220;5.308;2023-07-13T14:21:23;6.82;;;2.63;;
41480;SDS011;27217;51.220;5.308;2023-07-13T14:23:49;10.07;;;2.38;;
41480;SDS011;27217;51.220;5.308;2023-07-13T14:26:17;5.35;;;2.85;;
41480;SDS011;27217;51.220;5.308;2023-07-13T14:31:15;5.82;;;1.98;;
41480;SDS011;27217;51.220;5.308;2023-07-13T14:33:42;3.13;;;1.55;;
41480;SDS011;27217;51.220;5.308;2023-07-13T14:36:22;2.88;;;1.40;;
41480;SDS011;27217;51.220;5.308;2023-07-13T14:38:54;3.78;;;1.63;;
41480;SDS011;27217;51.220;5.308;2023-07-13T14:41:21;2.50;;;1.30;;
41480;SDS011;27217;51.220;5.308;2023-07-13T14:43:47;3.47;;;1.50;;
41480;SDS011;27217;51.220;5.308;2023-07-13T14:46:32;5.82;;;2.10;;
41480;SDS011;27217;51.220;5.308;2023-07-13T14:49:04;8.38;;;2.03;;
41480;SDS011;27217;51.220;5.308;2023-07-13T14:51:45;5.10;;;1.65;;
41480;SDS011;27217;51.220;5.308;2023-07-13T14:54:11;3.90;;;1.48;;
41480;SDS011;27217;51.220;5.308;2023-07-13T14:56:37;4.20;;;1.52;;
41480;SDS011;27217;51.220;5.308;2023-07-13T14:59:03;4.10;;;1.52;;
41480;SDS011;27217;51.220;5.308;2023-07-13T15:01:30;3.55;;;1.65;;
41480;SDS011;27217;51.220;5.308;2023-07-13T15:03:56;4.60;;;1.60;;
41480;SDS011;27217;51.220;5.308;2023-07-13T15:06:23;3.58;;;1.20;;
41480;SDS011;27217;51.220;5.308;2023-07-13T15:08:48;3.10;;;1.50;;
41480;SDS011;27217;51.220;5.308;2023-07-13T15:11:15;5.82;;;1.60;;
41480;SDS011;27217;51.220;5.308;2023-07-13T15:13:41;2.08;;;1.27;;
41480;SDS011;27217;51.220;5.308;2023-07-13T15:16:22;3.80;;;1.30;;
41480;SDS011;27217;51.220;5.308;2023-07-13T15:18:50;2.22;;;1.42;;
41480;SDS011;27217;51.220;5.308;2023-07-13T15:21:21;4.30;;;1.60;;
41480;SDS011;27217;51.220;5.308;2023-07-13T15:23:49;5.60;;;1.95;;
41480;SDS011;27217;51.220;5.308;2023-07-13T15:26:16;4.05;;;1.40;;
41480;SDS011;27217;51.220;5.308;2023-07-13T15:28:44;3.92;;;1.42;;
41480;SDS011;27217;51.220;5.308;2023-07-13T15:31:17;1.58;;;1.17;;
41480;SDS011;27217;51.220;5.308;2023-07-13T15:33:45;2.40;;;1.02;;
41480;SDS011;27217;51.220;5.308;2023-07-13T15:36:13;2.97;;;1.52;;
41480;SDS011;27217;51.220;5.308;2023-07-13T15:38:40;4.20;;;1.60;;
41480;SDS011;27217;51.220;5.308;2023-07-13T15:41:22;4.53;;;1.55;;
41480;SDS011;27217;51.220;5.308;2023-07-13T15:43:51;4.20;;;1.88;;
41480;SDS011;27217;51.220;5.308;2023-07-13T15:46:20;3.67;;;1.30;;
41480;SDS011;27217;51.220;5.308;2023-07-13T15:48:47;2.78;;;1.48;;
41480;SDS011;27217;51.220;5.308;2023-07-13T15:51:24;4.10;;;1.45;;